createdAt,value
2019-02-25T00:01:44.537Z,3.01
2019-02-25T00:06:43.833Z,3.01
2019-02-25T00:11:43.300Z,3.08
2019-02-25T00:16:43.513Z,3.05
2019-02-25T00:21:43.350Z,3.02
2019-02-25T00:26:42.442Z,2.95
2019-02-25T00:31:42.360Z,2.98
2019-02-25T00:36:42.566Z,3.04
2019-02-25T00:41:43.358Z,2.99
2019-02-25T00:46:43.544Z,2.86
2019-02-25T00:51:42.722Z,2.89
2019-02-25T00:56:42.331Z,2.78
2019-02-25T01:01:41.520Z,2.76
2019-02-25T01:06:41.373Z,2.72
2019-02-25T01:11:40.367Z,2.72
2019-02-25T01:16:40.375Z,2.68
2019-02-25T01:21:40.707Z,2.61
2019-02-25T01:26:40.331Z,2.58
2019-02-25T01:31:39.380Z,2.59
2019-02-25T01:36:40.417Z,2.55
2019-02-25T01:41:40.370Z,2.50
2019-02-25T01:46:39.414Z,2.40
2019-02-25T01:51:38.367Z,2.34
2019-02-25T01:56:37.373Z,2.19
2019-02-25T02:01:37.529Z,2.19
2019-02-25T02:06:36.365Z,2.26
2019-02-25T02:11:36.697Z,2.32
2019-02-25T02:16:35.429Z,2.42
2019-02-25T02:21:36.618Z,2.47
2019-02-25T02:26:36.588Z,2.42
2019-02-25T02:31:35.933Z,2.35
2019-02-25T02:36:36.576Z,2.33
2019-02-25T02:41:35.774Z,2.35
2019-02-25T02:46:36.608Z,2.32
2019-02-25T02:51:35.494Z,2.29
2019-02-25T02:56:35.366Z,2.29
2019-02-25T03:01:35.868Z,2.24
2019-02-25T03:06:35.800Z,2.17
2019-02-25T03:11:35.690Z,2.22
2019-02-25T03:16:34.423Z,2.19
2019-02-25T03:21:33.640Z,2.11
2019-02-25T03:26:34.469Z,2.03
2019-02-25T03:31:33.442Z,2.03
2019-02-25T03:36:33.404Z,1.99
2019-02-25T03:41:33.431Z,1.95
2019-02-25T03:46:32.606Z,1.92
2019-02-25T03:51:32.473Z,1.84
2019-02-25T03:56:31.697Z,1.85
2019-02-25T04:01:31.672Z,1.78
2019-02-25T04:06:30.673Z,1.74
2019-02-25T04:11:30.424Z,1.69
2019-02-25T04:16:30.535Z,1.64
2019-02-25T04:21:30.934Z,1.63
2019-02-25T04:26:29.923Z,1.68
2019-02-25T04:31:29.523Z,1.70
2019-02-25T04:36:29.469Z,1.65
2019-02-25T04:41:29.465Z,1.60
2019-02-25T04:46:28.676Z,1.56
2019-02-25T04:51:28.619Z,1.54
2019-02-25T04:56:28.451Z,1.51
2019-02-25T05:01:28.931Z,1.53
2019-02-25T05:06:28.507Z,1.49
2019-02-25T05:11:28.445Z,1.47
2019-02-25T05:16:29.703Z,1.49
2019-02-25T05:21:29.502Z,1.46
2019-02-25T05:26:29.571Z,1.43
2019-02-25T05:31:28.737Z,1.51
2019-02-25T05:36:28.539Z,1.52
2019-02-25T05:41:27.513Z,1.55
2019-02-25T05:46:28.536Z,1.59
2019-02-25T05:51:28.513Z,1.57
2019-02-25T05:56:27.565Z,1.65
2019-02-25T06:01:26.527Z,1.62
2019-02-25T06:06:26.578Z,1.58
2019-02-25T06:11:26.583Z,1.50
2019-02-25T06:16:26.660Z,1.42
2019-02-25T06:21:26.033Z,1.36
2019-02-25T06:26:26.576Z,1.35
2019-02-25T06:31:26.615Z,1.36
2019-02-25T06:36:26.673Z,1.42
2019-02-25T06:41:26.642Z,1.41
2019-02-25T06:46:27.726Z,1.43
2019-02-25T06:51:26.581Z,1.43
2019-02-25T06:56:26.563Z,1.41
2019-02-25T07:01:25.638Z,1.44
2019-02-25T07:06:25.592Z,1.45
2019-02-25T07:11:26.600Z,1.47
2019-02-25T07:16:25.605Z,1.49
2019-02-25T07:21:25.595Z,1.48
2019-02-25T07:26:24.721Z,1.63
2019-02-25T07:31:24.571Z,1.79
2019-02-25T07:36:24.607Z,1.91
2019-02-25T07:41:24.602Z,2.11
2019-02-25T07:46:23.616Z,2.32
2019-02-25T07:51:22.632Z,2.39
2019-02-25T07:56:22.628Z,2.52
2019-02-25T08:01:22.601Z,2.73
2019-02-25T08:06:22.137Z,2.93
2019-02-25T08:11:22.688Z,3.15
2019-02-25T08:16:21.971Z,3.39
2019-02-25T08:21:22.715Z,3.71
2019-02-25T08:26:22.865Z,3.97
2019-02-25T08:31:22.696Z,4.20
2019-02-25T08:36:21.671Z,4.43
2019-02-25T08:41:21.626Z,4.68
2019-02-25T08:46:20.741Z,4.89
2019-02-25T08:51:19.802Z,5.17
2019-02-25T08:56:20.659Z,5.45
2019-02-25T09:01:19.853Z,5.73
2019-02-25T09:06:19.661Z,5.94
2019-02-25T09:11:19.667Z,6.07
2019-02-25T09:16:19.647Z,6.21
2019-02-25T09:21:19.658Z,6.35
2019-02-25T09:26:18.612Z,6.61
2019-02-25T09:31:18.677Z,6.94
2019-02-25T09:36:18.683Z,7.03
2019-02-25T09:41:19.670Z,7.23
2019-02-25T09:46:20.677Z,7.60
2019-02-25T09:51:20.660Z,7.72
2019-02-25T09:56:19.670Z,7.89
2019-02-25T10:01:20.792Z,8.09
2019-02-25T10:06:21.659Z,8.38
2019-02-25T10:11:20.682Z,8.53
2019-02-25T10:16:19.770Z,8.65
2019-02-25T10:21:18.677Z,8.74
2019-02-25T10:26:18.672Z,8.92
2019-02-25T10:31:17.675Z,9.18
2019-02-25T10:36:18.654Z,9.48
2019-02-25T10:41:19.705Z,9.71
2019-02-25T10:46:17.773Z,9.92
2019-02-25T10:51:17.740Z,10.16
2019-02-25T10:56:17.359Z,10.37
2019-02-25T11:01:17.597Z,10.33
2019-02-25T11:06:14.658Z,10.51
2019-02-25T11:11:13.684Z,10.61
2019-02-25T11:16:14.007Z,10.89
2019-02-25T11:21:12.655Z,11.08
2019-02-25T11:26:11.828Z,11.41
2019-02-25T11:31:11.666Z,11.50
2019-02-25T11:36:12.591Z,11.70
2019-02-25T11:41:11.265Z,11.85
2019-02-25T11:46:10.771Z,12.08
2019-02-25T11:51:11.685Z,12.37
2019-02-25T11:56:10.711Z,12.58
2019-02-25T12:01:10.711Z,12.72
2019-02-25T12:06:09.745Z,12.74
2019-02-25T12:11:08.879Z,12.82
2019-02-25T12:16:08.728Z,12.81
2019-02-25T12:21:08.693Z,12.97
2019-02-25T12:26:08.686Z,13.06
2019-02-25T12:31:08.692Z,13.11
2019-02-25T12:36:08.721Z,13.19
2019-02-25T12:41:08.688Z,13.25
2019-02-25T12:46:07.647Z,13.41
2019-02-25T12:51:07.675Z,13.37
2019-02-25T12:56:07.677Z,13.44
2019-02-25T13:01:07.683Z,13.60
2019-02-25T13:06:06.814Z,13.71
2019-02-25T13:11:06.705Z,13.76
2019-02-25T13:16:05.867Z,13.91
2019-02-25T13:21:04.934Z,14.00
2019-02-25T13:26:07.431Z,14.08
2019-02-25T13:31:05.274Z,14.20
2019-02-25T13:36:02.986Z,14.19
2019-02-25T13:41:03.678Z,14.24
2019-02-25T13:46:03.689Z,14.21
2019-02-25T13:51:03.734Z,14.24
2019-02-25T13:56:03.668Z,14.37
2019-02-25T14:01:03.677Z,14.42
2019-02-25T14:06:02.819Z,14.58
2019-02-25T14:11:01.777Z,14.62
2019-02-25T14:16:01.728Z,14.56
2019-02-25T14:21:01.731Z,14.68
2019-02-25T14:26:02.777Z,14.79
2019-02-25T14:31:02.088Z,14.92
2019-02-25T14:36:02.732Z,14.97
2019-02-25T14:41:04.505Z,14.96
2019-02-25T14:46:01.705Z,14.91
2019-02-25T14:51:00.681Z,15.04
2019-02-25T14:56:03.828Z,15.11
2019-02-25T15:01:00.677Z,15.16
2019-02-25T15:06:00.661Z,15.03
2019-02-25T15:11:02.402Z,15.11
2019-02-25T15:16:00.672Z,15.04
2019-02-25T15:21:02.071Z,15.00
2019-02-25T15:26:05.234Z,14.90
2019-02-25T15:31:00.023Z,14.83
2019-02-25T15:36:01.307Z,14.67
2019-02-25T15:41:00.023Z,14.56
2019-02-25T15:45:58.113Z,14.59
2019-02-25T15:50:58.584Z,14.46
2019-02-25T15:55:59.196Z,14.35
2019-02-25T16:00:56.748Z,14.21
2019-02-25T16:05:59.811Z,14.14
2019-02-25T16:10:56.133Z,14.05
2019-02-25T16:15:54.952Z,13.95
2019-02-25T16:20:57.561Z,13.79
2019-02-25T16:25:56.905Z,13.64
2019-02-25T16:30:55.630Z,13.48
2019-02-25T16:35:54.913Z,13.31
2019-02-25T16:40:56.707Z,13.12
2019-02-25T16:45:54.660Z,13.01
2019-02-25T16:50:54.681Z,12.82
2019-02-25T16:55:54.748Z,12.59
2019-02-25T17:00:58.111Z,12.29
2019-02-25T17:05:53.712Z,11.98
2019-02-25T17:10:55.267Z,11.77
2019-02-25T17:15:53.738Z,11.49
2019-02-25T17:20:52.681Z,11.19
2019-02-25T17:25:52.755Z,10.88
2019-02-25T17:30:52.770Z,10.59
2019-02-25T17:35:54.243Z,10.32
2019-02-25T17:40:52.646Z,10.08
2019-02-25T17:45:51.699Z,9.83
2019-02-25T17:50:50.652Z,9.67
2019-02-25T17:55:51.193Z,9.52
2019-02-25T18:00:48.726Z,9.30
2019-02-25T18:05:48.110Z,9.14
2019-02-25T18:10:47.517Z,9.06
2019-02-25T18:15:47.699Z,9.02
2019-02-25T18:20:45.598Z,8.94
2019-02-25T18:25:45.649Z,8.77
2019-02-25T18:30:45.635Z,8.65
2019-02-25T18:35:45.709Z,8.50
2019-02-25T18:40:46.239Z,8.48
2019-02-25T18:45:44.796Z,8.44
2019-02-25T18:50:47.023Z,8.35
2019-02-25T18:55:43.650Z,8.27
2019-02-25T19:00:44.599Z,8.07
2019-02-25T19:05:41.759Z,7.92
2019-02-25T19:10:43.796Z,7.83
2019-02-25T19:15:41.748Z,7.57
2019-02-25T19:20:43.526Z,7.54
2019-02-25T19:25:41.724Z,7.48
2019-02-25T19:30:40.794Z,7.41
2019-02-25T19:35:40.863Z,7.34
2019-02-25T19:40:40.877Z,7.27
2019-02-25T19:45:42.617Z,7.19
2019-02-25T19:50:50.564Z,7.03
2019-02-25T19:55:40.765Z,6.86
2019-02-25T20:00:39.692Z,6.73
2019-02-25T20:05:43.395Z,6.60
2019-02-25T20:10:39.808Z,6.48
2019-02-25T20:15:41.777Z,6.25
2019-02-25T20:20:41.342Z,6.18
2019-02-25T20:25:42.432Z,6.15
2019-02-25T20:30:39.796Z,6.06
2019-02-25T20:35:39.939Z,5.98
2019-02-25T20:40:40.688Z,5.84
2019-02-25T20:45:39.694Z,5.78
2019-02-25T20:50:40.702Z,5.73
2019-02-25T20:55:39.964Z,5.68
2019-02-25T21:00:39.805Z,5.56
2019-02-25T21:05:38.674Z,5.63
2019-02-25T21:10:39.185Z,5.59
2019-02-25T21:15:40.255Z,5.48
2019-02-25T21:20:38.028Z,5.41
2019-02-25T21:25:38.517Z,5.37
2019-02-25T21:30:39.128Z,5.37
2019-02-25T21:35:37.066Z,5.36
2019-02-25T21:40:34.063Z,5.33
2019-02-25T21:45:32.925Z,5.32
2019-02-25T21:50:35.889Z,5.36
2019-02-25T21:55:34.743Z,5.38
2019-02-25T22:00:35.777Z,5.34
2019-02-25T22:05:32.656Z,5.26
2019-02-25T22:10:34.908Z,5.17
2019-02-25T22:15:34.008Z,5.10
2019-02-25T22:20:35.598Z,5.02
2019-02-25T22:25:31.499Z,4.94
2019-02-25T22:30:30.665Z,4.87
2019-02-25T22:35:33.120Z,4.85
2019-02-25T22:40:30.516Z,4.77
2019-02-25T22:45:31.471Z,4.71
2019-02-25T22:50:31.145Z,4.65
2019-02-25T22:55:30.491Z,4.51
2019-02-25T23:00:30.430Z,4.45
2019-02-25T23:05:30.498Z,4.39
2019-02-25T23:10:31.559Z,4.36
2019-02-25T23:15:31.533Z,4.28
2019-02-25T23:20:33.901Z,4.19
2019-02-25T23:25:31.495Z,4.16
2019-02-25T23:30:30.449Z,4.15
2019-02-25T23:35:29.462Z,4.11
2019-02-25T23:40:33.331Z,4.09
2019-02-25T23:45:29.529Z,4.02
2019-02-25T23:50:31.800Z,3.99
2019-02-25T23:55:29.720Z,3.88
